sensor_id;sensor_type;location;lat;lon;timestamp;P1;durP1;ratioP1;P2;durP2;ratioP2
19505;SDS011;9894;50.852;-0.140;2023-05-07T00:00:18;0.40;;;0.40;;
19505;SDS011;9894;50.852;-0.140;2023-05-07T00:02:44;0.40;;;0.40;;
19505;SDS011;9894;50.852;-0.140;2023-05-07T00:05:11;0.30;;;0.30;;
19505;SDS011;9894;50.852;-0.140;2023-05-07T00:07:37;0.40;;;0.40;;
19505;SDS011;9894;50.852;-0.140;2023-05-07T00:10:03;0.30;;;0.30;;
19505;SDS011;9894;50.852;-0.140;2023-05-07T00:12:31;0.55;;;0.55;;
19505;SDS011;9894;50.852;-0.140;2023-05-07T00:14:58;0.30;;;0.30;;
19505;SDS011;9894;50.852;-0.140;2023-05-07T00:17:25;0.30;;;0.30;;
19505;SDS011;9894;50.852;-0.140;2023-05-07T00:19:51;0.50;;;0.50;;
19505;SDS011;9894;50.852;-0.140;2023-05-07T00:22:17;0.30;;;0.30;;
19505;SDS011;9894;50.852;-0.140;2023-05-07T00:24:43;0.40;;;0.40;;
19505;SDS011;9894;50.852;-0.140;2023-05-07T00:27:09;0.30;;;0.30;;
19505;SDS011;9894;50.852;-0.140;2023-05-07T00:29:35;0.50;;;0.50;;
19505;SDS011;9894;50.852;-0.140;2023-05-07T00:32:01;0.40;;;0.40;;
19505;SDS011;9894;50.852;-0.140;2023-05-07T00:34:27;0.60;;;0.60;;
19505;SDS011;9894;50.852;-0.140;2023-05-07T00:36:53;0.30;;;0.30;;
19505;SDS011;9894;50.852;-0.140;2023-05-07T00:39:20;0.30;;;0.30;;
19505;SDS011;9894;50.852;-0.140;2023-05-07T00:41:46;0.40;;;0.40;;
19505;SDS011;9894;50.852;-0.140;2023-05-07T00:44:12;0.30;;;0.30;;
19505;SDS011;9894;50.852;-0.140;2023-05-07T00:46:39;0.30;;;0.30;;
19505;SDS011;9894;50.852;-0.140;2023-05-07T00:49:06;0.28;;;0.28;;
19505;SDS011;9894;50.852;-0.140;2023-05-07T00:51:32;0.20;;;0.20;;
19505;SDS011;9894;50.852;-0.140;2023-05-07T00:53:59;0.30;;;0.30;;
19505;SDS011;9894;50.852;-0.140;2023-05-07T00:56:26;0.30;;;0.30;;
19505;SDS011;9894;50.852;-0.140;2023-05-07T00:58:52;0.30;;;0.30;;
19505;SDS011;9894;50.852;-0.140;2023-05-07T01:01:18;0.30;;;0.30;;
19505;SDS011;9894;50.852;-0.140;2023-05-07T01:03:44;0.30;;;0.30;;
19505;SDS011;9894;50.852;-0.140;2023-05-07T01:06:11;0.30;;;0.30;;
19505;SDS011;9894;50.852;-0.140;2023-05-07T01:08:38;0.30;;;0.30;;
19505;SDS011;9894;50.852;-0.140;2023-05-07T01:11:05;0.30;;;0.30;;
19505;SDS011;9894;50.852;-0.140;2023-05-07T01:13:32;0.30;;;0.30;;
19505;SDS011;9894;50.852;-0.140;2023-05-07T01:15:58;0.52;;;0.52;;
19505;SDS011;9894;50.852;-0.140;2023-05-07T01:18:25;0.28;;;0.28;;
19505;SDS011;9894;50.852;-0.140;2023-05-07T01:20:51;0.25;;;0.25;;
19505;SDS011;9894;50.852;-0.140;2023-05-07T01:23:18;0.20;;;0.20;;
19505;SDS011;9894;50.852;-0.140;2023-05-07T01:25:51;0.30;;;0.30;;
19505;SDS011;9894;50.852;-0.140;2023-05-07T01:28:18;0.20;;;0.20;;
19505;SDS011;9894;50.852;-0.140;2023-05-07T01:30:45;0.40;;;0.40;;
19505;SDS011;9894;50.852;-0.140;2023-05-07T01:33:13;0.20;;;0.20;;
19505;SDS011;9894;50.852;-0.140;2023-05-07T01:35:41;0.20;;;0.20;;
19505;SDS011;9894;50.852;-0.140;2023-05-07T01:38:07;0.20;;;0.20;;
19505;SDS011;9894;50.852;-0.140;2023-05-07T01:40:34;0.20;;;0.20;;
19505;SDS011;9894;50.852;-0.140;2023-05-07T01:43:03;0.20;;;0.20;;
19505;SDS011;9894;50.852;-0.140;2023-05-07T01:45:32;0.20;;;0.20;;
19505;SDS011;9894;50.852;-0.140;2023-05-07T01:47:59;0.20;;;0.20;;
19505;SDS011;9894;50.852;-0.140;2023-05-07T01:50:26;0.20;;;0.20;;
19505;SDS011;9894;50.852;-0.140;2023-05-07T01:52:53;0.20;;;0.20;;
19505;SDS011;9894;50.852;-0.140;2023-05-07T01:55:19;0.20;;;0.20;;
19505;SDS011;9894;50.852;-0.140;2023-05-07T01:57:45;0.20;;;0.20;;
19505;SDS011;9894;50.852;-0.140;2023-05-07T02:00:12;0.15;;;0.15;;
19505;SDS011;9894;50.852;-0.140;2023-05-07T02:02:38;0.20;;;0.20;;
19505;SDS011;9894;50.852;-0.140;2023-05-07T02:05:04;0.20;;;0.20;;
19505;SDS011;9894;50.852;-0.140;2023-05-07T02:07:30;0.20;;;0.20;;
19505;SDS011;9894;50.852;-0.140;2023-05-07T02:09:56;0.20;;;0.20;;
19505;SDS011;9894;50.852;-0.140;2023-05-07T02:12:22;0.20;;;0.20;;
19505;SDS011;9894;50.852;-0.140;2023-05-07T02:14:49;0.20;;;0.20;;
19505;SDS011;9894;50.852;-0.140;2023-05-07T02:17:15;0.30;;;0.30;;
19505;SDS011;9894;50.852;-0.140;2023-05-07T02:19:41;0.20;;;0.20;;
19505;SDS011;9894;50.852;-0.140;2023-05-07T02:22:07;0.20;;;0.20;;
19505;SDS011;9894;50.852;-0.140;2023-05-07T02:24:33;0.20;;;0.20;;
19505;SDS011;9894;50.852;-0.140;2023-05-07T02:27:00;0.20;;;0.20;;
19505;SDS011;9894;50.852;-0.140;2023-05-07T02:29:26;0.22;;;0.22;;
19505;SDS011;9894;50.852;-0.140;2023-05-07T02:31:52;0.30;;;0.30;;
19505;SDS011;9894;50.852;-0.140;2023-05-07T02:34:18;0.30;;;0.30;;
19505;SDS011;9894;50.852;-0.140;2023-05-07T02:36:45;0.20;;;0.20;;
19505;SDS011;9894;50.852;-0.140;2023-05-07T02:39:11;0.20;;;0.20;;
19505;SDS011;9894;50.852;-0.140;2023-05-07T02:41:37;0.20;;;0.20;;
19505;SDS011;9894;50.852;-0.140;2023-05-07T02:44:04;0.20;;;0.20;;
19505;SDS011;9894;50.852;-0.140;2023-05-07T02:46:30;0.20;;;0.20;;
19505;SDS011;9894;50.852;-0.140;2023-05-07T02:48:56;0.20;;;0.20;;
19505;SDS011;9894;50.852;-0.140;2023-05-07T02:51:22;0.20;;;0.20;;
19505;SDS011;9894;50.852;-0.140;2023-05-07T02:53:48;0.20;;;0.20;;
19505;SDS011;9894;50.852;-0.140;2023-05-07T02:56:15;0.20;;;0.20;;
19505;SDS011;9894;50.852;-0.140;2023-05-07T02:58:41;0.20;;;0.20;;
19505;SDS011;9894;50.852;-0.140;2023-05-07T03:01:08;0.20;;;0.20;;
19505;SDS011;9894;50.852;-0.140;2023-05-07T03:03:34;0.20;;;0.20;;
19505;SDS011;9894;50.852;-0.140;2023-05-07T03:06:00;0.15;;;0.15;;
19505;SDS011;9894;50.852;-0.140;2023-05-07T03:08:27;0.20;;;0.20;;
19505;SDS011;9894;50.852;-0.140;2023-05-07T03:10:53;0.20;;;0.20;;
19505;SDS011;9894;50.852;-0.140;2023-05-07T03:13:19;0.20;;;0.20;;
19505;SDS011;9894;50.852;-0.140;2023-05-07T03:15:45;0.20;;;0.20;;
19505;SDS011;9894;50.852;-0.140;2023-05-07T03:18:11;0.20;;;0.20;;
19505;SDS011;9894;50.852;-0.140;2023-05-07T03:20:37;0.20;;;0.20;;
19505;SDS011;9894;50.852;-0.140;2023-05-07T03:23:03;0.20;;;0.20;;
19505;SDS011;9894;50.852;-0.140;2023-05-07T03:25:30;0.20;;;0.20;;
19505;SDS011;9894;50.852;-0.140;2023-05-07T03:27:56;0.20;;;0.20;;
19505;SDS011;9894;50.852;-0.140;2023-05-07T03:30:22;0.20;;;0.20;;
19505;SDS011;9894;50.852;-0.140;2023-05-07T03:32:48;0.20;;;0.20;;
19505;SDS011;9894;50.852;-0.140;2023-05-07T03:35:15;0.20;;;0.20;;
19505;SDS011;9894;50.852;-0.140;2023-05-07T03:37:41;0.30;;;0.30;;
19505;SDS011;9894;50.852;-0.140;2023-05-07T03:40:07;0.20;;;0.20;;
19505;SDS011;9894;50.852;-0.140;2023-05-07T03:42:35;0.20;;;0.20;;
19505;SDS011;9894;50.852;-0.140;2023-05-07T03:45:01;0.20;;;0.20;;
19505;SDS011;9894;50.852;-0.140;2023-05-07T03:47:27;0.20;;;0.20;;
19505;SDS011;9894;50.852;-0.140;2023-05-07T03:49:53;0.20;;;0.20;;
19505;SDS011;9894;50.852;-0.140;2023-05-07T03:52:20;0.20;;;0.20;;
19505;SDS011;9894;50.852;-0.140;2023-05-07T03:54:51;0.30;;;0.30;;
19505;SDS011;9894;50.852;-0.140;2023-05-07T03:57:17;0.30;;;0.30;;
19505;SDS011;9894;50.852;-0.140;2023-05-07T03:59:43;0.28;;;0.28;;
19505;SDS011;9894;50.852;-0.140;2023-05-07T04:02:09;0.30;;;0.30;;
19505;SDS011;9894;50.852;-0.140;2023-05-07T04:04:35;0.30;;;0.30;;
19505;SDS011;9894;50.852;-0.140;2023-05-07T04:07:01;0.30;;;0.30;;
19505;SDS011;9894;50.852;-0.140;2023-05-07T04:09:28;0.40;;;0.40;;
19505;SDS011;9894;50.852;-0.140;2023-05-07T04:11:54;0.20;;;0.20;;
19505;SDS011;9894;50.852;-0.140;2023-05-07T04:14:20;0.30;;;0.30;;
19505;SDS011;9894;50.852;-0.140;2023-05-07T04:16:46;0.20;;;0.20;;
19505;SDS011;9894;50.852;-0.140;2023-05-07T04:19:12;0.50;;;0.50;;
19505;SDS011;9894;50.852;-0.140;2023-05-07T04:21:38;0.20;;;0.20;;
19505;SDS011;9894;50.852;-0.140;2023-05-07T04:24:05;0.40;;;0.40;;
19505;SDS011;9894;50.852;-0.140;2023-05-07T04:26:31;0.20;;;0.20;;
19505;SDS011;9894;50.852;-0.140;2023-05-07T04:28:57;0.22;;;0.22;;
19505;SDS011;9894;50.852;-0.140;2023-05-07T04:31:24;0.30;;;0.30;;
19505;SDS011;9894;50.852;-0.140;2023-05-07T04:33:51;0.30;;;0.30;;
19505;SDS011;9894;50.852;-0.140;2023-05-07T04:36:17;0.28;;;0.28;;
19505;SDS011;9894;50.852;-0.140;2023-05-07T04:38:43;0.20;;;0.20;;
19505;SDS011;9894;50.852;-0.140;2023-05-07T04:41:12;0.52;;;0.52;;
19505;SDS011;9894;50.852;-0.140;2023-05-07T04:43:38;0.30;;;0.30;;
19505;SDS011;9894;50.852;-0.140;2023-05-07T04:46:05;0.40;;;0.40;;
19505;SDS011;9894;50.852;-0.140;2023-05-07T04:48:31;0.25;;;0.25;;
19505;SDS011;9894;50.852;-0.140;2023-05-07T04:50:57;0.30;;;0.30;;
19505;SDS011;9894;50.852;-0.140;2023-05-07T04:53:23;0.30;;;0.30;;
19505;SDS011;9894;50.852;-0.140;2023-05-07T04:55:54;0.40;;;0.40;;
19505;SDS011;9894;50.852;-0.140;2023-05-07T04:58:20;0.30;;;0.30;;
19505;SDS011;9894;50.852;-0.140;2023-05-07T05:00:46;0.20;;;0.20;;
19505;SDS011;9894;50.852;-0.140;2023-05-07T05:03:13;0.20;;;0.20;;
19505;SDS011;9894;50.852;-0.140;2023-05-07T05:05:39;0.20;;;0.20;;
19505;SDS011;9894;50.852;-0.140;2023-05-07T05:08:05;0.20;;;0.20;;
19505;SDS011;9894;50.852;-0.140;2023-05-07T05:10:31;0.20;;;0.20;;
19505;SDS011;9894;50.852;-0.140;2023-05-07T05:12:57;0.30;;;0.30;;
19505;SDS011;9894;50.852;-0.140;2023-05-07T05:15:23;0.20;;;0.20;;
19505;SDS011;9894;50.852;-0.140;2023-05-07T05:17:49;0.20;;;0.20;;
19505;SDS011;9894;50.852;-0.140;2023-05-07T05:20:16;0.28;;;0.28;;
19505;SDS011;9894;50.852;-0.140;2023-05-07T05:22:42;0.20;;;0.20;;
19505;SDS011;9894;50.852;-0.140;2023-05-07T05:25:08;0.20;;;0.20;;
19505;SDS011;9894;50.852;-0.140;2023-05-07T05:27:34;0.40;;;0.40;;
19505;SDS011;9894;50.852;-0.140;2023-05-07T05:30:01;0.20;;;0.20;;
19505;SDS011;9894;50.852;-0.140;2023-05-07T05:32:27;0.20;;;0.20;;
19505;SDS011;9894;50.852;-0.140;2023-05-07T05:34:53;0.20;;;0.20;;
19505;SDS011;9894;50.852;-0.140;2023-05-07T05:37:19;0.20;;;0.20;;
19505;SDS011;9894;50.852;-0.140;2023-05-07T05:39:45;0.30;;;0.30;;
19505;SDS011;9894;50.852;-0.140;2023-05-07T05:42:11;0.30;;;0.30;;
19505;SDS011;9894;50.852;-0.140;2023-05-07T05:44:38;0.30;;;0.30;;
19505;SDS011;9894;50.852;-0.140;2023-05-07T05:47:04;0.20;;;0.20;;
19505;SDS011;9894;50.852;-0.140;2023-05-07T05:49:30;0.30;;;0.30;;
19505;SDS011;9894;50.852;-0.140;2023-05-07T05:51:56;1.23;;;1.10;;
19505;SDS011;9894;50.852;-0.140;2023-05-07T05:54:22;0.20;;;0.20;;
19505;SDS011;9894;50.852;-0.140;2023-05-07T05:56:48;0.20;;;0.20;;
19505;SDS011;9894;50.852;-0.140;2023-05-07T05:59:15;0.20;;;0.20;;
19505;SDS011;9894;50.852;-0.140;2023-05-07T06:01:41;0.40;;;0.40;;
19505;SDS011;9894;50.852;-0.140;2023-05-07T06:04:07;0.30;;;0.30;;
19505;SDS011;9894;50.852;-0.140;2023-05-07T06:06:33;0.50;;;0.50;;
19505;SDS011;9894;50.852;-0.140;2023-05-07T06:08:59;1.02;;;0.88;;
19505;SDS011;9894;50.852;-0.140;2023-05-07T06:11:25;0.20;;;0.20;;
19505;SDS011;9894;50.852;-0.140;2023-05-07T06:13:51;1.73;;;1.45;;
19505;SDS011;9894;50.852;-0.140;2023-05-07T06:16:18;0.93;;;0.93;;
19505;SDS011;9894;50.852;-0.140;2023-05-07T06:18:44;0.30;;;0.30;;
19505;SDS011;9894;50.852;-0.140;2023-05-07T06:21:11;0.30;;;0.30;;
19505;SDS011;9894;50.852;-0.140;2023-05-07T06:23:37;0.30;;;0.30;;
19505;SDS011;9894;50.852;-0.140;2023-05-07T06:26:06;1.52;;;0.70;;
19505;SDS011;9894;50.852;-0.140;2023-05-07T06:28:32;1.20;;;1.10;;
19505;SDS011;9894;50.852;-0.140;2023-05-07T06:31:10;0.30;;;0.30;;
19505;SDS011;9894;50.852;-0.140;2023-05-07T06:33:36;0.40;;;0.40;;
19505;SDS011;9894;50.852;-0.140;2023-05-07T06:36:03;0.30;;;0.30;;
19505;SDS011;9894;50.852;-0.140;2023-05-07T06:38:29;0.40;;;0.40;;
19505;SDS011;9894;50.852;-0.140;2023-05-07T06:40:55;0.30;;;0.30;;
19505;SDS011;9894;50.852;-0.140;2023-05-07T06:43:22;0.30;;;0.30;;
19505;SDS011;9894;50.852;-0.140;2023-05-07T06:45:48;0.30;;;0.30;;
19505;SDS011;9894;50.852;-0.140;2023-05-07T06:48:14;0.35;;;0.35;;
19505;SDS011;9894;50.852;-0.140;2023-05-07T06:50:41;0.30;;;0.30;;
19505;SDS011;9894;50.852;-0.140;2023-05-07T06:53:07;0.30;;;0.30;;
19505;SDS011;9894;50.852;-0.140;2023-05-07T06:55:33;0.30;;;0.30;;
19505;SDS011;9894;50.852;-0.140;2023-05-07T06:58:00;0.30;;;0.30;;
19505;SDS011;9894;50.852;-0.140;2023-05-07T07:00:29;0.30;;;0.30;;
19505;SDS011;9894;50.852;-0.140;2023-05-07T07:02:56;0.80;;;0.45;;
19505;SDS011;9894;50.852;-0.140;2023-05-07T07:05:22;0.57;;;0.57;;
19505;SDS011;9894;50.852;-0.140;2023-05-07T07:07:48;0.40;;;0.40;;
19505;SDS011;9894;50.852;-0.140;2023-05-07T07:10:20;0.55;;;0.55;;
19505;SDS011;9894;50.852;-0.140;2023-05-07T07:12:46;0.30;;;0.30;;
19505;SDS011;9894;50.852;-0.140;2023-05-07T07:15:13;0.40;;;0.40;;
19505;SDS011;9894;50.852;-0.140;2023-05-07T07:17:39;0.40;;;0.40;;
19505;SDS011;9894;50.852;-0.140;2023-05-07T07:20:06;0.30;;;0.30;;
19505;SDS011;9894;50.852;-0.140;2023-05-07T07:22:32;0.40;;;0.40;;
19505;SDS011;9894;50.852;-0.140;2023-05-07T07:24:58;0.85;;;0.82;;
19505;SDS011;9894;50.852;-0.140;2023-05-07T07:27:25;1.95;;;1.48;;
19505;SDS011;9894;50.852;-0.140;2023-05-07T07:29:51;0.40;;;0.40;;
19505;SDS011;9894;50.852;-0.140;2023-05-07T07:32:17;0.32;;;0.32;;
19505;SDS011;9894;50.852;-0.140;2023-05-07T07:34:43;0.20;;;0.20;;
19505;SDS011;9894;50.852;-0.140;2023-05-07T07:37:09;0.30;;;0.30;;
19505;SDS011;9894;50.852;-0.140;2023-05-07T07:39:35;0.57;;;0.57;;
19505;SDS011;9894;50.852;-0.140;2023-05-07T07:42:02;2.53;;;0.93;;
19505;SDS011;9894;50.852;-0.140;2023-05-07T07:44:29;0.30;;;0.30;;
19505;SDS011;9894;50.852;-0.140;2023-05-07T07:46:55;0.60;;;0.60;;
19505;SDS011;9894;50.852;-0.140;2023-05-07T07:49:21;0.40;;;0.40;;
19505;SDS011;9894;50.852;-0.140;2023-05-07T07:51:47;0.30;;;0.30;;
19505;SDS011;9894;50.852;-0.140;2023-05-07T07:54:13;0.50;;;0.50;;
19505;SDS011;9894;50.852;-0.140;2023-05-07T07:56:39;0.30;;;0.30;;
19505;SDS011;9894;50.852;-0.140;2023-05-07T07:59:05;0.43;;;0.43;;
19505;SDS011;9894;50.852;-0.140;2023-05-07T08:01:32;0.38;;;0.38;;
19505;SDS011;9894;50.852;-0.140;2023-05-07T08:03:58;0.55;;;0.55;;
19505;SDS011;9894;50.852;-0.140;2023-05-07T08:06:24;0.68;;;0.68;;
19505;SDS011;9894;50.852;-0.140;2023-05-07T08:08:51;0.50;;;0.50;;
19505;SDS011;9894;50.852;-0.140;2023-05-07T08:11:17;0.30;;;0.30;;
19505;SDS011;9894;50.852;-0.140;2023-05-07T08:13:43;0.30;;;0.30;;
19505;SDS011;9894;50.852;-0.140;2023-05-07T08:16:10;0.40;;;0.40;;
19505;SDS011;9894;50.852;-0.140;2023-05-07T08:18:36;0.50;;;0.50;;
19505;SDS011;9894;50.852;-0.140;2023-05-07T08:21:02;0.40;;;0.40;;
19505;SDS011;9894;50.852;-0.140;2023-05-07T08:23:29;0.30;;;0.30;;
19505;SDS011;9894;50.852;-0.140;2023-05-07T08:25:55;0.40;;;0.40;;
19505;SDS011;9894;50.852;-0.140;2023-05-07T08:28:21;0.40;;;0.40;;
19505;SDS011;9894;50.852;-0.140;2023-05-07T08:30:49;0.40;;;0.40;;
19505;SDS011;9894;50.852;-0.140;2023-05-07T08:33:15;1.20;;;1.15;;
19505;SDS011;9894;50.852;-0.140;2023-05-07T08:35:42;0.40;;;0.40;;
19505;SDS011;9894;50.852;-0.140;2023-05-07T08:38:08;0.30;;;0.30;;
19505;SDS011;9894;50.852;-0.140;2023-05-07T08:40:37;0.82;;;0.82;;
19505;SDS011;9894;50.852;-0.140;2023-05-07T08:43:05;0.38;;;0.38;;
19505;SDS011;9894;50.852;-0.140;2023-05-07T08:45:32;0.40;;;0.40;;
19505;SDS011;9894;50.852;-0.140;2023-05-07T08:47:59;0.47;;;0.47;;
19505;SDS011;9894;50.852;-0.140;2023-05-07T08:50:25;0.30;;;0.30;;
19505;SDS011;9894;50.852;-0.140;2023-05-07T08:52:52;0.30;;;0.30;;
19505;SDS011;9894;50.852;-0.140;2023-05-07T08:55:18;0.30;;;0.30;;
19505;SDS011;9894;50.852;-0.140;2023-05-07T08:57:44;0.40;;;0.40;;
19505;SDS011;9894;50.852;-0.140;2023-05-07T09:00:10;0.20;;;0.20;;
19505;SDS011;9894;50.852;-0.140;2023-05-07T09:02:37;0.20;;;0.20;;
19505;SDS011;9894;50.852;-0.140;2023-05-07T09:05:03;0.75;;;0.55;;
19505;SDS011;9894;50.852;-0.140;2023-05-07T09:07:30;0.30;;;0.30;;
19505;SDS011;9894;50.852;-0.140;2023-05-07T09:09:56;0.40;;;0.40;;
19505;SDS011;9894;50.852;-0.140;2023-05-07T09:12:23;1.33;;;1.20;;
19505;SDS011;9894;50.852;-0.140;2023-05-07T09:14:49;0.45;;;0.45;;
19505;SDS011;9894;50.852;-0.140;2023-05-07T09:17:16;0.40;;;0.40;;
19505;SDS011;9894;50.852;-0.140;2023-05-07T09:19:43;0.30;;;0.30;;
19505;SDS011;9894;50.852;-0.140;2023-05-07T09:22:10;0.40;;;0.40;;
19505;SDS011;9894;50.852;-0.140;2023-05-07T09:24:37;0.30;;;0.30;;
19505;SDS011;9894;50.852;-0.140;2023-05-07T09:27:06;0.30;;;0.30;;
19505;SDS011;9894;50.852;-0.140;2023-05-07T09:29:33;0.30;;;0.30;;
19505;SDS011;9894;50.852;-0.140;2023-05-07T09:32:03;0.30;;;0.30;;
19505;SDS011;9894;50.852;-0.140;2023-05-07T09:34:29;0.40;;;0.40;;
19505;SDS011;9894;50.852;-0.140;2023-05-07T09:36:56;0.30;;;0.30;;
19505;SDS011;9894;50.852;-0.140;2023-05-07T09:39:23;0.30;;;0.30;;
19505;SDS011;9894;50.852;-0.140;2023-05-07T09:41:49;0.40;;;0.40;;
19505;SDS011;9894;50.852;-0.140;2023-05-07T09:44:17;0.30;;;0.30;;
19505;SDS011;9894;50.852;-0.140;2023-05-07T09:46:44;0.30;;;0.30;;
19505;SDS011;9894;50.852;-0.140;2023-05-07T09:49:19;0.30;;;0.30;;
19505;SDS011;9894;50.852;-0.140;2023-05-07T09:51:50;0.93;;;0.93;;
19505;SDS011;9894;50.852;-0.140;2023-05-07T09:54:16;5.55;;;2.22;;
19505;SDS011;9894;50.852;-0.140;2023-05-07T09:56:44;0.45;;;0.45;;
19505;SDS011;9894;50.852;-0.140;2023-05-07T09:59:14;0.20;;;0.20;;
19505;SDS011;9894;50.852;-0.140;2023-05-07T10:01:41;0.40;;;0.40;;
19505;SDS011;9894;50.852;-0.140;2023-05-07T10:04:08;0.28;;;0.28;;
19505;SDS011;9894;50.852;-0.140;2023-05-07T10:06:35;0.20;;;0.20;;
19505;SDS011;9894;50.852;-0.140;2023-05-07T10:09:02;0.30;;;0.30;;
19505;SDS011;9894;50.852;-0.140;2023-05-07T10:11:28;0.20;;;0.20;;
19505;SDS011;9894;50.852;-0.140;2023-05-07T10:13:54;1.98;;;1.00;;
19505;SDS011;9894;50.852;-0.140;2023-05-07T10:16:20;0.30;;;0.30;;
19505;SDS011;9894;50.852;-0.140;2023-05-07T10:18:47;0.40;;;0.40;;
19505;SDS011;9894;50.852;-0.140;2023-05-07T10:21:17;0.30;;;0.30;;
19505;SDS011;9894;50.852;-0.140;2023-05-07T10:24:05;0.88;;;0.88;;
19505;SDS011;9894;50.852;-0.140;2023-05-07T10:26:33;0.50;;;0.50;;
19505;SDS011;9894;50.852;-0.140;2023-05-07T10:29:02;0.20;;;0.20;;
19505;SDS011;9894;50.852;-0.140;2023-05-07T10:33:55;0.20;;;0.20;;
19505;SDS011;9894;50.852;-0.140;2023-05-07T10:36:22;1.33;;;1.05;;
19505;SDS011;9894;50.852;-0.140;2023-05-07T10:38:49;0.95;;;0.95;;
19505;SDS011;9894;50.852;-0.140;2023-05-07T10:41:15;0.20;;;0.20;;
19505;SDS011;9894;50.852;-0.140;2023-05-07T10:43:44;0.40;;;0.40;;
19505;SDS011;9894;50.852;-0.140;2023-05-07T10:46:15;0.50;;;0.50;;
19505;SDS011;9894;50.852;-0.140;2023-05-07T10:51:31;0.30;;;0.30;;
19505;SDS011;9894;50.852;-0.140;2023-05-07T10:56:42;3.95;;;2.58;;
19505;SDS011;9894;50.852;-0.140;2023-05-07T10:59:51;0.73;;;0.30;;
19505;SDS011;9894;50.852;-0.140;2023-05-07T11:02:02;0.40;;;0.40;;
19505;SDS011;9894;50.852;-0.140;2023-05-07T11:04:31;0.65;;;0.65;;
19505;SDS011;9894;50.852;-0.140;2023-05-07T11:17:29;0.20;;;0.20;;
19505;SDS011;9894;50.852;-0.140;2023-05-07T11:19:59;0.30;;;0.30;;
19505;SDS011;9894;50.852;-0.140;2023-05-07T11:24:59;0.22;;;0.22;;
19505;SDS011;9894;50.852;-0.140;2023-05-07T11:27:26;0.50;;;0.50;;
19505;SDS011;9894;50.852;-0.140;2023-05-07T11:29:52;1.40;;;1.00;;
19505;SDS011;9894;50.852;-0.140;2023-05-07T11:32:22;0.30;;;0.30;;
19505;SDS011;9894;50.852;-0.140;2023-05-07T11:34:52;0.40;;;0.40;;
19505;SDS011;9894;50.852;-0.140;2023-05-07T11:37:19;0.30;;;0.30;;
19505;SDS011;9894;50.852;-0.140;2023-05-07T11:39:45;1.25;;;1.15;;
19505;SDS011;9894;50.852;-0.140;2023-05-07T11:42:31;0.60;;;0.60;;
19505;SDS011;9894;50.852;-0.140;2023-05-07T11:44:57;1.02;;;1.02;;
19505;SDS011;9894;50.852;-0.140;2023-05-07T11:47:24;0.80;;;0.80;;
19505;SDS011;9894;50.852;-0.140;2023-05-07T11:49:51;0.30;;;0.30;;
19505;SDS011;9894;50.852;-0.140;2023-05-07T11:52:17;0.30;;;0.30;;
19505;SDS011;9894;50.852;-0.140;2023-05-07T11:54:57;0.40;;;0.40;;
19505;SDS011;9894;50.852;-0.140;2023-05-07T11:57:24;0.55;;;0.55;;
19505;SDS011;9894;50.852;-0.140;2023-05-07T11:59:54;0.30;;;0.30;;
19505;SDS011;9894;50.852;-0.140;2023-05-07T12:02:21;0.40;;;0.40;;
19505;SDS011;9894;50.852;-0.140;2023-05-07T12:04:47;3.10;;;1.83;;
19505;SDS011;9894;50.852;-0.140;2023-05-07T12:07:13;0.30;;;0.30;;
19505;SDS011;9894;50.852;-0.140;2023-05-07T12:09:43;0.30;;;0.30;;
19505;SDS011;9894;50.852;-0.140;2023-05-07T12:12:09;0.43;;;0.43;;
19505;SDS011;9894;50.852;-0.140;2023-05-07T12:14:39;2.95;;;1.70;;
19505;SDS011;9894;50.852;-0.140;2023-05-07T12:17:05;0.40;;;0.40;;
19505;SDS011;9894;50.852;-0.140;2023-05-07T12:19:33;1.95;;;1.85;;
19505;SDS011;9894;50.852;-0.140;2023-05-07T12:21:59;0.82;;;0.77;;
19505;SDS011;9894;50.852;-0.140;2023-05-07T12:24:26;1.55;;;0.77;;
19505;SDS011;9894;50.852;-0.140;2023-05-07T12:26:52;0.40;;;0.40;;
19505;SDS011;9894;50.852;-0.140;2023-05-07T12:29:22;0.55;;;0.55;;
19505;SDS011;9894;50.852;-0.140;2023-05-07T12:31:49;0.30;;;0.30;;
19505;SDS011;9894;50.852;-0.140;2023-05-07T12:34:15;0.38;;;0.38;;
19505;SDS011;9894;50.852;-0.140;2023-05-07T12:36:41;1.40;;;1.08;;
19505;SDS011;9894;50.852;-0.140;2023-05-07T12:39:08;0.30;;;0.30;;
19505;SDS011;9894;50.852;-0.140;2023-05-07T12:41:54;0.30;;;0.30;;
19505;SDS011;9894;50.852;-0.140;2023-05-07T12:44:24;0.47;;;0.47;;
19505;SDS011;9894;50.852;-0.140;2023-05-07T12:46:50;0.40;;;0.40;;
19505;SDS011;9894;50.852;-0.140;2023-05-07T12:49:16;0.40;;;0.40;;
19505;SDS011;9894;50.852;-0.140;2023-05-07T12:51:49;0.40;;;0.40;;
19505;SDS011;9894;50.852;-0.140;2023-05-07T12:54:31;0.70;;;0.70;;
19505;SDS011;9894;50.852;-0.140;2023-05-07T12:57:00;0.50;;;0.50;;
19505;SDS011;9894;50.852;-0.140;2023-05-07T12:59:31;0.50;;;0.50;;
19505;SDS011;9894;50.852;-0.140;2023-05-07T13:01:57;0.90;;;0.90;;
19505;SDS011;9894;50.852;-0.140;2023-05-07T13:04:24;0.70;;;0.70;;
19505;SDS011;9894;50.852;-0.140;2023-05-07T13:06:50;0.70;;;0.70;;
19505;SDS011;9894;50.852;-0.140;2023-05-07T13:09:17;3.20;;;1.55;;
19505;SDS011;9894;50.852;-0.140;2023-05-07T13:11:43;3.08;;;0.90;;
19505;SDS011;9894;50.852;-0.140;2023-05-07T13:14:09;3.30;;;2.90;;
19505;SDS011;9894;50.852;-0.140;2023-05-07T13:16:35;1.05;;;1.05;;
19505;SDS011;9894;50.852;-0.140;2023-05-07T13:19:01;0.95;;;0.95;;
19505;SDS011;9894;50.852;-0.140;2023-05-07T13:21:27;1.05;;;1.05;;
19505;SDS011;9894;50.852;-0.140;2023-05-07T13:23:53;1.40;;;1.30;;
19505;SDS011;9894;50.852;-0.140;2023-05-07T13:26:19;4.13;;;2.28;;
19505;SDS011;9894;50.852;-0.140;2023-05-07T13:28:46;0.70;;;0.70;;
19505;SDS011;9894;50.852;-0.140;2023-05-07T13:31:13;0.60;;;0.60;;
19505;SDS011;9894;50.852;-0.140;2023-05-07T13:33:39;0.90;;;0.90;;
19505;SDS011;9894;50.852;-0.140;2023-05-07T13:36:06;0.63;;;0.63;;
19505;SDS011;9894;50.852;-0.140;2023-05-07T13:38:32;0.70;;;0.70;;
19505;SDS011;9894;50.852;-0.140;2023-05-07T13:40:59;0.70;;;0.70;;
19505;SDS011;9894;50.852;-0.140;2023-05-07T13:43:25;0.50;;;0.50;;
19505;SDS011;9894;50.852;-0.140;2023-05-07T13:45:51;1.38;;;1.38;;
19505;SDS011;9894;50.852;-0.140;2023-05-07T13:48:17;1.05;;;1.05;;
19505;SDS011;9894;50.852;-0.140;2023-05-07T13:50:43;0.50;;;0.50;;
19505;SDS011;9894;50.852;-0.140;2023-05-07T13:53:09;0.70;;;0.70;;
19505;SDS011;9894;50.852;-0.140;2023-05-07T13:55:35;0.88;;;0.88;;
19505;SDS011;9894;50.852;-0.140;2023-05-07T13:58:02;0.70;;;0.70;;
19505;SDS011;9894;50.852;-0.140;2023-05-07T14:00:28;1.08;;;1.08;;
19505;SDS011;9894;50.852;-0.140;2023-05-07T14:02:55;1.05;;;1.00;;
19505;SDS011;9894;50.852;-0.140;2023-05-07T14:05:22;2.53;;;0.50;;
19505;SDS011;9894;50.852;-0.140;2023-05-07T14:07:50;1.20;;;1.20;;
19505;SDS011;9894;50.852;-0.140;2023-05-07T14:10:17;0.50;;;0.50;;
19505;SDS011;9894;50.852;-0.140;2023-05-07T14:12:44;1.25;;;1.20;;
19505;SDS011;9894;50.852;-0.140;2023-05-07T14:15:10;0.95;;;0.95;;
19505;SDS011;9894;50.852;-0.140;2023-05-07T14:17:37;1.60;;;1.50;;
19505;SDS011;9894;50.852;-0.140;2023-05-07T14:20:03;0.90;;;0.90;;
19505;SDS011;9894;50.852;-0.140;2023-05-07T14:22:31;1.17;;;1.17;;
19505;SDS011;9894;50.852;-0.140;2023-05-07T14:24:57;1.13;;;1.13;;
19505;SDS011;9894;50.852;-0.140;2023-05-07T14:27:23;2.10;;;2.00;;
19505;SDS011;9894;50.852;-0.140;2023-05-07T14:29:49;6.65;;;4.20;;
19505;SDS011;9894;50.852;-0.140;2023-05-07T14:32:16;4.50;;;4.18;;
19505;SDS011;9894;50.852;-0.140;2023-05-07T14:34:43;4.60;;;4.30;;
19505;SDS011;9894;50.852;-0.140;2023-05-07T14:37:10;7.13;;;6.63;;
19505;SDS011;9894;50.852;-0.140;2023-05-07T14:39:36;8.10;;;7.60;;
19505;SDS011;9894;50.852;-0.140;2023-05-07T14:42:02;11.48;;;10.32;;
19505;SDS011;9894;50.852;-0.140;2023-05-07T14:44:28;9.30;;;8.70;;
19505;SDS011;9894;50.852;-0.140;2023-05-07T14:46:54;10.80;;;10.00;;
19505;SDS011;9894;50.852;-0.140;2023-05-07T14:49:21;8.60;;;8.00;;
19505;SDS011;9894;50.852;-0.140;2023-05-07T14:51:47;8.05;;;7.55;;
19505;SDS011;9894;50.852;-0.140;2023-05-07T14:54:14;8.48;;;7.88;;
19505;SDS011;9894;50.852;-0.140;2023-05-07T14:56:40;8.40;;;7.80;;
19505;SDS011;9894;50.852;-0.140;2023-05-07T14:59:07;8.45;;;7.85;;
19505;SDS011;9894;50.852;-0.140;2023-05-07T15:01:36;7.35;;;6.85;;
19505;SDS011;9894;50.852;-0.140;2023-05-07T15:04:03;7.20;;;6.70;;
19505;SDS011;9894;50.852;-0.140;2023-05-07T15:06:29;6.80;;;6.40;;